sensor_id;sensor_type;location;lat;lon;timestamp;temperature;humidity
21387;DHT22;10854;45.922;6.716;2023-05-16T00:01:51;8.30;99.90
21387;DHT22;10854;45.922;6.716;2023-05-16T00:04:19;8.30;99.90
21387;DHT22;10854;45.922;6.716;2023-05-16T00:06:48;8.20;99.90
21387;DHT22;10854;45.922;6.716;2023-05-16T00:09:16;8.20;99.90
21387;DHT22;10854;45.922;6.716;2023-05-16T00:11:45;8.20;99.90
21387;DHT22;10854;45.922;6.716;2023-05-16T00:14:15;8.20;99.90
21387;DHT22;10854;45.922;6.716;2023-05-16T00:16:44;8.10;99.90
21387;DHT22;10854;45.922;6.716;2023-05-16T00:19:12;8.10;99.90
21387;DHT22;10854;45.922;6.716;2023-05-16T00:21:40;8.10;99.90
21387;DHT22;10854;45.922;6.716;2023-05-16T00:24:09;8.00;99.90
21387;DHT22;10854;45.922;6.716;2023-05-16T00:26:37;8.00;99.90
21387;DHT22;10854;45.922;6.716;2023-05-16T00:29:06;8.00;99.90
21387;DHT22;10854;45.922;6.716;2023-05-16T00:31:34;7.90;99.90
21387;DHT22;10854;45.922;6.716;2023-05-16T00:34:03;7.90;99.90
21387;DHT22;10854;45.922;6.716;2023-05-16T00:36:31;7.80;99.90
21387;DHT22;10854;45.922;6.716;2023-05-16T00:39:00;7.80;99.90
21387;DHT22;10854;45.922;6.716;2023-05-16T00:41:28;7.80;99.90
21387;DHT22;10854;45.922;6.716;2023-05-16T00:43:56;7.80;99.90
21387;DHT22;10854;45.922;6.716;2023-05-16T00:46:25;7.90;99.90
21387;DHT22;10854;45.922;6.716;2023-05-16T00:48:53;7.80;99.90
21387;DHT22;10854;45.922;6.716;2023-05-16T00:51:22;7.80;99.90
21387;DHT22;10854;45.922;6.716;2023-05-16T00:53:50;7.80;99.90
21387;DHT22;10854;45.922;6.716;2023-05-16T00:56:19;7.70;99.90
21387;DHT22;10854;45.922;6.716;2023-05-16T00:58:48;7.70;99.90
21387;DHT22;10854;45.922;6.716;2023-05-16T01:01:22;7.60;99.90
21387;DHT22;10854;45.922;6.716;2023-05-16T01:03:52;7.60;99.90
21387;DHT22;10854;45.922;6.716;2023-05-16T01:06:21;7.60;99.90
21387;DHT22;10854;45.922;6.716;2023-05-16T01:08:49;7.60;99.90
21387;DHT22;10854;45.922;6.716;2023-05-16T01:11:26;7.60;99.90
21387;DHT22;10854;45.922;6.716;2023-05-16T01:14:25;7.50;99.90
21387;DHT22;10854;45.922;6.716;2023-05-16T01:17:04;7.50;99.90
21387;DHT22;10854;45.922;6.716;2023-05-16T01:20:12;7.40;99.90
21387;DHT22;10854;45.922;6.716;2023-05-16T01:28:16;7.30;99.90
21387;DHT22;10854;45.922;6.716;2023-05-16T01:30:45;7.20;99.90
21387;DHT22;10854;45.922;6.716;2023-05-16T01:33:13;7.20;99.90
21387;DHT22;10854;45.922;6.716;2023-05-16T01:36:05;7.20;99.90
21387;DHT22;10854;45.922;6.716;2023-05-16T01:38:50;7.20;99.90
21387;DHT22;10854;45.922;6.716;2023-05-16T01:41:25;7.20;99.90
21387;DHT22;10854;45.922;6.716;2023-05-16T01:43:59;7.10;99.90
21387;DHT22;10854;45.922;6.716;2023-05-16T01:46:36;7.10;99.90
21387;DHT22;10854;45.922;6.716;2023-05-16T01:49:18;7.10;99.90
21387;DHT22;10854;45.922;6.716;2023-05-16T01:52:12;7.10;99.90
21387;DHT22;10854;45.922;6.716;2023-05-16T01:54:44;7.10;99.90
21387;DHT22;10854;45.922;6.716;2023-05-16T01:57:15;7.10;99.90
21387;DHT22;10854;45.922;6.716;2023-05-16T01:59:44;7.10;99.90
21387;DHT22;10854;45.922;6.716;2023-05-16T02:02:17;7.20;99.90
21387;DHT22;10854;45.922;6.716;2023-05-16T02:04:46;7.20;99.90
21387;DHT22;10854;45.922;6.716;2023-05-16T02:07:14;7.20;99.90
21387;DHT22;10854;45.922;6.716;2023-05-16T02:09:43;7.30;99.90
21387;DHT22;10854;45.922;6.716;2023-05-16T02:12:11;7.40;99.90
21387;DHT22;10854;45.922;6.716;2023-05-16T02:14:40;7.40;99.90
21387;DHT22;10854;45.922;6.716;2023-05-16T02:17:08;7.60;99.90
21387;DHT22;10854;45.922;6.716;2023-05-16T02:19:36;7.70;99.90
21387;DHT22;10854;45.922;6.716;2023-05-16T02:22:05;7.80;99.90
21387;DHT22;10854;45.922;6.716;2023-05-16T02:24:36;8.00;99.90
21387;DHT22;10854;45.922;6.716;2023-05-16T02:27:05;8.10;99.90
21387;DHT22;10854;45.922;6.716;2023-05-16T02:29:33;8.20;99.90
21387;DHT22;10854;45.922;6.716;2023-05-16T02:32:02;8.20;99.90
21387;DHT22;10854;45.922;6.716;2023-05-16T02:34:31;8.30;99.90
21387;DHT22;10854;45.922;6.716;2023-05-16T02:37:00;8.30;99.90
21387;DHT22;10854;45.922;6.716;2023-05-16T02:39:28;8.40;99.90
21387;DHT22;10854;45.922;6.716;2023-05-16T02:41:56;8.40;99.90
21387;DHT22;10854;45.922;6.716;2023-05-16T02:44:25;8.50;99.90
21387;DHT22;10854;45.922;6.716;2023-05-16T02:46:53;8.50;99.90
21387;DHT22;10854;45.922;6.716;2023-05-16T02:49:22;8.60;99.90
21387;DHT22;10854;45.922;6.716;2023-05-16T02:51:50;8.70;99.90
21387;DHT22;10854;45.922;6.716;2023-05-16T02:54:19;8.80;99.90
21387;DHT22;10854;45.922;6.716;2023-05-16T02:56:48;8.80;99.90
21387;DHT22;10854;45.922;6.716;2023-05-16T02:59:16;8.90;99.90
21387;DHT22;10854;45.922;6.716;2023-05-16T03:01:45;9.00;99.90
21387;DHT22;10854;45.922;6.716;2023-05-16T03:04:13;9.00;99.90
21387;DHT22;10854;45.922;6.716;2023-05-16T03:06:41;9.10;99.90
21387;DHT22;10854;45.922;6.716;2023-05-16T03:09:09;9.10;99.90
21387;DHT22;10854;45.922;6.716;2023-05-16T03:11:38;9.00;99.90
21387;DHT22;10854;45.922;6.716;2023-05-16T03:14:06;9.00;99.90
21387;DHT22;10854;45.922;6.716;2023-05-16T03:16:35;9.00;99.90
21387;DHT22;10854;45.922;6.716;2023-05-16T03:19:05;8.90;99.90
21387;DHT22;10854;45.922;6.716;2023-05-16T03:21:34;8.80;99.90
21387;DHT22;10854;45.922;6.716;2023-05-16T03:24:02;8.80;99.90
21387;DHT22;10854;45.922;6.716;2023-05-16T03:26:31;8.70;99.90
21387;DHT22;10854;45.922;6.716;2023-05-16T03:28:59;8.70;99.90
21387;DHT22;10854;45.922;6.716;2023-05-16T03:31:28;8.60;99.90
21387;DHT22;10854;45.922;6.716;2023-05-16T03:33:56;8.60;99.90
21387;DHT22;10854;45.922;6.716;2023-05-16T03:36:25;8.50;99.90
21387;DHT22;10854;45.922;6.716;2023-05-16T03:38:54;8.40;99.90
21387;DHT22;10854;45.922;6.716;2023-05-16T03:41:22;8.30;99.90
21387;DHT22;10854;45.922;6.716;2023-05-16T03:43:51;8.20;99.90
21387;DHT22;10854;45.922;6.716;2023-05-16T03:46:19;8.10;99.90
21387;DHT22;10854;45.922;6.716;2023-05-16T03:48:47;8.10;99.90
21387;DHT22;10854;45.922;6.716;2023-05-16T03:51:16;8.00;99.90
21387;DHT22;10854;45.922;6.716;2023-05-16T03:53:44;8.00;99.90
21387;DHT22;10854;45.922;6.716;2023-05-16T03:56:12;7.90;99.90
21387;DHT22;10854;45.922;6.716;2023-05-16T03:58:41;7.80;99.90
21387;DHT22;10854;45.922;6.716;2023-05-16T04:01:09;7.90;99.90
21387;DHT22;10854;45.922;6.716;2023-05-16T04:03:37;7.90;99.90
21387;DHT22;10854;45.922;6.716;2023-05-16T04:06:06;7.90;99.90
21387;DHT22;10854;45.922;6.716;2023-05-16T04:08:35;7.90;99.90
21387;DHT22;10854;45.922;6.716;2023-05-16T04:11:03;8.00;99.90
21387;DHT22;10854;45.922;6.716;2023-05-16T04:13:32;8.00;99.90
21387;DHT22;10854;45.922;6.716;2023-05-16T04:16:02;8.10;99.90
21387;DHT22;10854;45.922;6.716;2023-05-16T04:18:30;8.10;99.90
21387;DHT22;10854;45.922;6.716;2023-05-16T04:20:58;8.20;99.90
21387;DHT22;10854;45.922;6.716;2023-05-16T04:23:27;8.30;99.90
21387;DHT22;10854;45.922;6.716;2023-05-16T04:25:55;8.30;99.90
21387;DHT22;10854;45.922;6.716;2023-05-16T04:28:23;8.40;99.90
21387;DHT22;10854;45.922;6.716;2023-05-16T04:30:52;8.50;99.90
21387;DHT22;10854;45.922;6.716;2023-05-16T04:33:20;8.60;99.90
21387;DHT22;10854;45.922;6.716;2023-05-16T04:35:48;8.70;99.90
21387;DHT22;10854;45.922;6.716;2023-05-16T04:38:17;8.70;99.90
21387;DHT22;10854;45.922;6.716;2023-05-16T04:40:45;8.80;99.90
21387;DHT22;10854;45.922;6.716;2023-05-16T04:43:13;8.80;99.90
21387;DHT22;10854;45.922;6.716;2023-05-16T04:45:42;8.90;99.90
21387;DHT22;10854;45.922;6.716;2023-05-16T04:48:10;8.90;99.90
21387;DHT22;10854;45.922;6.716;2023-05-16T04:50:39;8.90;99.90
21387;DHT22;10854;45.922;6.716;2023-05-16T04:53:07;8.90;99.90
21387;DHT22;10854;45.922;6.716;2023-05-16T04:55:35;9.00;99.90
21387;DHT22;10854;45.922;6.716;2023-05-16T04:58:04;9.00;99.90
21387;DHT22;10854;45.922;6.716;2023-05-16T05:00:32;9.10;99.90
21387;DHT22;10854;45.922;6.716;2023-05-16T05:03:01;9.20;99.90
21387;DHT22;10854;45.922;6.716;2023-05-16T05:05:29;9.20;99.90
21387;DHT22;10854;45.922;6.716;2023-05-16T05:07:58;9.30;99.90
21387;DHT22;10854;45.922;6.716;2023-05-16T05:10:27;9.30;99.90
21387;DHT22;10854;45.922;6.716;2023-05-16T05:12:57;9.30;99.90
21387;DHT22;10854;45.922;6.716;2023-05-16T05:15:26;9.50;99.90
21387;DHT22;10854;45.922;6.716;2023-05-16T05:17:54;9.60;99.90
21387;DHT22;10854;45.922;6.716;2023-05-16T05:20:22;9.60;99.90
21387;DHT22;10854;45.922;6.716;2023-05-16T05:22:51;9.80;99.90
21387;DHT22;10854;45.922;6.716;2023-05-16T05:25:19;9.90;99.90
21387;DHT22;10854;45.922;6.716;2023-05-16T05:27:48;10.00;99.90
21387;DHT22;10854;45.922;6.716;2023-05-16T05:30:16;10.10;99.90
21387;DHT22;10854;45.922;6.716;2023-05-16T05:32:44;10.10;99.90
21387;DHT22;10854;45.922;6.716;2023-05-16T05:35:13;10.10;99.90
21387;DHT22;10854;45.922;6.716;2023-05-16T05:37:42;10.10;99.90
21387;DHT22;10854;45.922;6.716;2023-05-16T05:40:10;10.10;99.90
21387;DHT22;10854;45.922;6.716;2023-05-16T05:42:39;10.20;99.90
21387;DHT22;10854;45.922;6.716;2023-05-16T05:45:08;10.20;99.90
21387;DHT22;10854;45.922;6.716;2023-05-16T05:47:37;10.30;99.90
21387;DHT22;10854;45.922;6.716;2023-05-16T05:50:06;10.50;99.90
21387;DHT22;10854;45.922;6.716;2023-05-16T05:52:35;10.60;99.90
21387;DHT22;10854;45.922;6.716;2023-05-16T05:55:04;10.80;99.90
21387;DHT22;10854;45.922;6.716;2023-05-16T05:57:32;11.00;99.90
21387;DHT22;10854;45.922;6.716;2023-05-16T06:00:01;11.50;99.90
21387;DHT22;10854;45.922;6.716;2023-05-16T06:02:29;12.00;99.90
21387;DHT22;10854;45.922;6.716;2023-05-16T06:04:58;12.40;99.90
21387;DHT22;10854;45.922;6.716;2023-05-16T06:07:26;12.60;99.90
21387;DHT22;10854;45.922;6.716;2023-05-16T06:09:54;12.60;99.90
21387;DHT22;10854;45.922;6.716;2023-05-16T06:12:22;12.50;99.90
21387;DHT22;10854;45.922;6.716;2023-05-16T06:14:51;12.40;99.90
21387;DHT22;10854;45.922;6.716;2023-05-16T06:17:19;12.20;99.90
21387;DHT22;10854;45.922;6.716;2023-05-16T06:19:47;12.10;99.90
21387;DHT22;10854;45.922;6.716;2023-05-16T06:22:16;12.10;99.90
21387;DHT22;10854;45.922;6.716;2023-05-16T06:24:44;12.10;99.90
21387;DHT22;10854;45.922;6.716;2023-05-16T06:27:13;12.10;99.90
21387;DHT22;10854;45.922;6.716;2023-05-16T06:29:41;12.20;99.90
21387;DHT22;10854;45.922;6.716;2023-05-16T06:32:09;12.20;99.90
21387;DHT22;10854;45.922;6.716;2023-05-16T06:34:39;12.20;99.90
21387;DHT22;10854;45.922;6.716;2023-05-16T06:37:07;12.10;99.90
21387;DHT22;10854;45.922;6.716;2023-05-16T06:39:36;12.20;99.90
21387;DHT22;10854;45.922;6.716;2023-05-16T06:42:04;12.20;99.90
21387;DHT22;10854;45.922;6.716;2023-05-16T06:44:33;12.50;99.90
21387;DHT22;10854;45.922;6.716;2023-05-16T06:47:01;13.00;99.90
21387;DHT22;10854;45.922;6.716;2023-05-16T06:49:30;13.40;99.90
21387;DHT22;10854;45.922;6.716;2023-05-16T06:51:58;13.90;99.90
21387;DHT22;10854;45.922;6.716;2023-05-16T06:54:26;14.20;97.00
21387;DHT22;10854;45.922;6.716;2023-05-16T06:56:55;14.40;94.00
21387;DHT22;10854;45.922;6.716;2023-05-16T06:59:23;14.60;92.80
21387;DHT22;10854;45.922;6.716;2023-05-16T07:01:52;14.70;91.40
21387;DHT22;10854;45.922;6.716;2023-05-16T07:04:21;14.80;90.70
21387;DHT22;10854;45.922;6.716;2023-05-16T07:06:49;14.80;90.30
21387;DHT22;10854;45.922;6.716;2023-05-16T07:09:18;14.90;90.50
21387;DHT22;10854;45.922;6.716;2023-05-16T07:11:46;15.50;90.70
21387;DHT22;10854;45.922;6.716;2023-05-16T07:14:14;16.20;90.30
21387;DHT22;10854;45.922;6.716;2023-05-16T07:16:43;17.00;87.60
21387;DHT22;10854;45.922;6.716;2023-05-16T07:19:11;17.70;83.00
21387;DHT22;10854;45.922;6.716;2023-05-16T07:21:40;18.10;79.90
21387;DHT22;10854;45.922;6.716;2023-05-16T07:24:08;18.40;78.20
21387;DHT22;10854;45.922;6.716;2023-05-16T07:26:37;18.50;75.50
21387;DHT22;10854;45.922;6.716;2023-05-16T07:29:05;18.50;72.60
21387;DHT22;10854;45.922;6.716;2023-05-16T07:31:34;18.20;72.20
21387;DHT22;10854;45.922;6.716;2023-05-16T07:34:02;17.70;72.40
21387;DHT22;10854;45.922;6.716;2023-05-16T07:36:30;17.30;73.00
21387;DHT22;10854;45.922;6.716;2023-05-16T07:38:59;17.10;73.20
21387;DHT22;10854;45.922;6.716;2023-05-16T07:41:28;16.80;73.60
21387;DHT22;10854;45.922;6.716;2023-05-16T07:43:57;16.60;73.70
21387;DHT22;10854;45.922;6.716;2023-05-16T07:46:25;16.30;74.20
21387;DHT22;10854;45.922;6.716;2023-05-16T07:48:53;16.10;75.00
21387;DHT22;10854;45.922;6.716;2023-05-16T07:51:22;16.00;75.60
21387;DHT22;10854;45.922;6.716;2023-05-16T07:53:50;15.90;75.80
21387;DHT22;10854;45.922;6.716;2023-05-16T07:56:18;15.80;76.30
21387;DHT22;10854;45.922;6.716;2023-05-16T07:58:47;15.90;77.20
21387;DHT22;10854;45.922;6.716;2023-05-16T08:01:16;16.10;77.60
21387;DHT22;10854;45.922;6.716;2023-05-16T08:03:44;16.30;77.40
21387;DHT22;10854;45.922;6.716;2023-05-16T08:06:13;16.40;77.40
21387;DHT22;10854;45.922;6.716;2023-05-16T08:08:42;16.60;77.10
21387;DHT22;10854;45.922;6.716;2023-05-16T08:11:10;16.70;76.90
21387;DHT22;10854;45.922;6.716;2023-05-16T08:13:39;16.80;76.80
21387;DHT22;10854;45.922;6.716;2023-05-16T08:16:07;16.80;76.00
21387;DHT22;10854;45.922;6.716;2023-05-16T08:18:36;16.90;75.90
21387;DHT22;10854;45.922;6.716;2023-05-16T08:21:04;17.10;75.70
21387;DHT22;10854;45.922;6.716;2023-05-16T08:23:33;17.10;75.00
21387;DHT22;10854;45.922;6.716;2023-05-16T08:26:02;17.00;74.50
21387;DHT22;10854;45.922;6.716;2023-05-16T08:28:30;17.00;74.40
21387;DHT22;10854;45.922;6.716;2023-05-16T08:30:59;17.10;74.60
21387;DHT22;10854;45.922;6.716;2023-05-16T08:33:27;17.10;74.40
21387;DHT22;10854;45.922;6.716;2023-05-16T08:35:55;17.20;74.20
21387;DHT22;10854;45.922;6.716;2023-05-16T08:38:24;17.20;73.90
21387;DHT22;10854;45.922;6.716;2023-05-16T08:40:52;17.20;74.10
21387;DHT22;10854;45.922;6.716;2023-05-16T08:43:21;17.30;74.20
21387;DHT22;10854;45.922;6.716;2023-05-16T08:45:50;17.50;73.90
21387;DHT22;10854;45.922;6.716;2023-05-16T08:48:22;17.60;73.40
21387;DHT22;10854;45.922;6.716;2023-05-16T08:50:50;17.70;72.30
21387;DHT22;10854;45.922;6.716;2023-05-16T08:53:30;17.80;72.50
21387;DHT22;10854;45.922;6.716;2023-05-16T08:56:00;18.10;72.10
21387;DHT22;10854;45.922;6.716;2023-05-16T08:58:30;18.20;71.40
21387;DHT22;10854;45.922;6.716;2023-05-16T09:00:59;18.30;70.90
21387;DHT22;10854;45.922;6.716;2023-05-16T09:03:30;18.40;70.90
21387;DHT22;10854;45.922;6.716;2023-05-16T09:05:58;18.30;70.10
21387;DHT22;10854;45.922;6.716;2023-05-16T09:08:27;18.20;70.40
21387;DHT22;10854;45.922;6.716;2023-05-16T09:10:55;18.10;70.70
21387;DHT22;10854;45.922;6.716;2023-05-16T09:13:24;18.00;71.40
21387;DHT22;10854;45.922;6.716;2023-05-16T09:16:17;17.90;70.90
21387;DHT22;10854;45.922;6.716;2023-05-16T09:18:53;17.60;71.00
21387;DHT22;10854;45.922;6.716;2023-05-16T09:21:30;17.20;71.60
21387;DHT22;10854;45.922;6.716;2023-05-16T09:24:08;16.90;73.30
21387;DHT22;10854;45.922;6.716;2023-05-16T09:26:38;16.50;74.00
21387;DHT22;10854;45.922;6.716;2023-05-16T09:29:13;16.30;75.20
21387;DHT22;10854;45.922;6.716;2023-05-16T09:31:41;16.20;76.20
21387;DHT22;10854;45.922;6.716;2023-05-16T09:34:10;16.10;76.70
21387;DHT22;10854;45.922;6.716;2023-05-16T09:36:39;16.00;77.80
21387;DHT22;10854;45.922;6.716;2023-05-16T09:39:10;16.00;79.40
21387;DHT22;10854;45.922;6.716;2023-05-16T09:41:42;16.00;81.00
21387;DHT22;10854;45.922;6.716;2023-05-16T09:44:10;15.90;80.80
21387;DHT22;10854;45.922;6.716;2023-05-16T09:46:39;15.80;81.50
21387;DHT22;10854;45.922;6.716;2023-05-16T09:49:11;15.90;81.40
21387;DHT22;10854;45.922;6.716;2023-05-16T09:51:40;16.10;82.00
21387;DHT22;10854;45.922;6.716;2023-05-16T09:54:09;16.20;82.10
21387;DHT22;10854;45.922;6.716;2023-05-16T09:56:49;16.50;82.80
21387;DHT22;10854;45.922;6.716;2023-05-16T09:59:18;17.10;82.30
21387;DHT22;10854;45.922;6.716;2023-05-16T10:01:48;18.00;82.00
21387;DHT22;10854;45.922;6.716;2023-05-16T10:04:18;19.00;78.10
21387;DHT22;10854;45.922;6.716;2023-05-16T10:06:47;19.90;73.90
21387;DHT22;10854;45.922;6.716;2023-05-16T10:09:17;20.70;72.10
21387;DHT22;10854;45.922;6.716;2023-05-16T10:11:47;21.50;68.40
21387;DHT22;10854;45.922;6.716;2023-05-16T10:14:17;22.20;65.30
21387;DHT22;10854;45.922;6.716;2023-05-16T10:16:47;22.90;64.30
21387;DHT22;10854;45.922;6.716;2023-05-16T10:19:19;23.50;62.80
21387;DHT22;10854;45.922;6.716;2023-05-16T10:21:52;24.20;60.30
21387;DHT22;10854;45.922;6.716;2023-05-16T10:24:25;25.00;57.40
21387;DHT22;10854;45.922;6.716;2023-05-16T10:26:55;25.20;54.60
21387;DHT22;10854;45.922;6.716;2023-05-16T10:29:26;25.10;53.20
21387;DHT22;10854;45.922;6.716;2023-05-16T10:31:55;25.10;53.40
21387;DHT22;10854;45.922;6.716;2023-05-16T10:34:24;25.00;52.50
21387;DHT22;10854;45.922;6.716;2023-05-16T10:36:53;24.80;53.00
21387;DHT22;10854;45.922;6.716;2023-05-16T10:39:22;24.90;52.70
21387;DHT22;10854;45.922;6.716;2023-05-16T10:41:50;25.30;52.30
21387;DHT22;10854;45.922;6.716;2023-05-16T10:44:19;25.70;50.10
21387;DHT22;10854;45.922;6.716;2023-05-16T10:46:47;25.90;49.80
21387;DHT22;10854;45.922;6.716;2023-05-16T10:49:23;26.00;48.20
21387;DHT22;10854;45.922;6.716;2023-05-16T10:52:02;25.70;47.50
21387;DHT22;10854;45.922;6.716;2023-05-16T10:54:39;25.40;48.50
21387;DHT22;10854;45.922;6.716;2023-05-16T10:57:10;25.30;49.60
21387;DHT22;10854;45.922;6.716;2023-05-16T10:59:43;25.20;49.00
21387;DHT22;10854;45.922;6.716;2023-05-16T11:02:29;24.60;49.50
21387;DHT22;10854;45.922;6.716;2023-05-16T11:05:02;23.90;50.30
21387;DHT22;10854;45.922;6.716;2023-05-16T11:07:34;23.40;51.90
21387;DHT22;10854;45.922;6.716;2023-05-16T11:10:14;23.10;52.10
21387;DHT22;10854;45.922;6.716;2023-05-16T11:12:46;22.80;51.50
21387;DHT22;10854;45.922;6.716;2023-05-16T11:15:26;22.40;52.80
21387;DHT22;10854;45.922;6.716;2023-05-16T11:18:12;22.10;52.90
21387;DHT22;10854;45.922;6.716;2023-05-16T11:20:42;21.70;53.10
21387;DHT22;10854;45.922;6.716;2023-05-16T11:23:28;21.40;53.30
21387;DHT22;10854;45.922;6.716;2023-05-16T11:25:57;21.20;53.60
21387;DHT22;10854;45.922;6.716;2023-05-16T11:28:27;20.90;53.40
21387;DHT22;10854;45.922;6.716;2023-05-16T11:30:57;20.60;53.80
21387;DHT22;10854;45.922;6.716;2023-05-16T11:33:26;20.30;54.40
21387;DHT22;10854;45.922;6.716;2023-05-16T11:36:02;20.30;55.30
21387;DHT22;10854;45.922;6.716;2023-05-16T11:38:40;20.30;56.20
21387;DHT22;10854;45.922;6.716;2023-05-16T11:41:11;20.50;56.10
21387;DHT22;10854;45.922;6.716;2023-05-16T11:43:44;20.70;55.50
21387;DHT22;10854;45.922;6.716;2023-05-16T11:46:14;20.70;54.80
21387;DHT22;10854;45.922;6.716;2023-05-16T11:48:43;20.90;54.80
21387;DHT22;10854;45.922;6.716;2023-05-16T11:51:17;21.20;54.10
21387;DHT22;10854;45.922;6.716;2023-05-16T11:53:49;21.30;53.00
21387;DHT22;10854;45.922;6.716;2023-05-16T11:56:17;21.50;53.40
21387;DHT22;10854;45.922;6.716;2023-05-16T11:58:49;21.80;53.30
21387;DHT22;10854;45.922;6.716;2023-05-16T12:01:17;21.90;52.10
21387;DHT22;10854;45.922;6.716;2023-05-16T12:03:55;21.90;51.90
21387;DHT22;10854;45.922;6.716;2023-05-16T12:06:24;21.70;51.80
21387;DHT22;10854;45.922;6.716;2023-05-16T12:08:53;21.70;52.20
21387;DHT22;10854;45.922;6.716;2023-05-16T12:11:24;21.80;51.70
21387;DHT22;10854;45.922;6.716;2023-05-16T12:13:53;21.60;51.20
21387;DHT22;10854;45.922;6.716;2023-05-16T12:16:22;21.40;51.40
21387;DHT22;10854;45.922;6.716;2023-05-16T12:18:51;21.00;51.50
21387;DHT22;10854;45.922;6.716;2023-05-16T12:21:21;20.80;52.60
21387;DHT22;10854;45.922;6.716;2023-05-16T12:23:54;20.60;53.70
21387;DHT22;10854;45.922;6.716;2023-05-16T12:26:28;20.70;54.40
21387;DHT22;10854;45.922;6.716;2023-05-16T12:28:58;20.80;55.90
21387;DHT22;10854;45.922;6.716;2023-05-16T12:31:37;20.70;55.20
21387;DHT22;10854;45.922;6.716;2023-05-16T12:34:17;20.70;55.30
21387;DHT22;10854;45.922;6.716;2023-05-16T12:36:50;21.00;54.60
21387;DHT22;10854;45.922;6.716;2023-05-16T12:39:19;21.40;54.00
21387;DHT22;10854;45.922;6.716;2023-05-16T12:41:49;22.00;53.80
21387;DHT22;10854;45.922;6.716;2023-05-16T12:44:18;22.20;53.20
21387;DHT22;10854;45.922;6.716;2023-05-16T12:46:50;22.10;54.60
21387;DHT22;10854;45.922;6.716;2023-05-16T12:49:20;21.80;55.30
21387;DHT22;10854;45.922;6.716;2023-05-16T12:51:53;21.50;55.30
21387;DHT22;10854;45.922;6.716;2023-05-16T12:54:22;21.10;56.10
21387;DHT22;10854;45.922;6.716;2023-05-16T12:56:50;20.80;54.40
21387;DHT22;10854;45.922;6.716;2023-05-16T12:59:19;20.80;53.70
21387;DHT22;10854;45.922;6.716;2023-05-16T13:01:47;20.80;53.60
21387;DHT22;10854;45.922;6.716;2023-05-16T13:04:15;20.90;53.50
21387;DHT22;10854;45.922;6.716;2023-05-16T13:06:46;21.00;54.60
21387;DHT22;10854;45.922;6.716;2023-05-16T13:09:23;20.90;55.30
21387;DHT22;10854;45.922;6.716;2023-05-16T13:11:52;20.70;54.90
21387;DHT22;10854;45.922;6.716;2023-05-16T13:14:21;20.40;54.00
21387;DHT22;10854;45.922;6.716;2023-05-16T13:16:49;20.30;54.30
21387;DHT22;10854;45.922;6.716;2023-05-16T13:19:18;20.10;55.00
21387;DHT22;10854;45.922;6.716;2023-05-16T13:21:46;20.10;55.50
21387;DHT22;10854;45.922;6.716;2023-05-16T13:24:15;20.10;55.30
21387;DHT22;10854;45.922;6.716;2023-05-16T13:26:43;20.20;55.10
21387;DHT22;10854;45.922;6.716;2023-05-16T13:29:12;20.70;55.10
21387;DHT22;10854;45.922;6.716;2023-05-16T13:31:41;21.00;54.70
21387;DHT22;10854;45.922;6.716;2023-05-16T13:34:09;21.30;53.30
21387;DHT22;10854;45.922;6.716;2023-05-16T13:36:38;21.60;53.30
21387;DHT22;10854;45.922;6.716;2023-05-16T13:39:16;21.80;52.80
21387;DHT22;10854;45.922;6.716;2023-05-16T13:41:45;21.70;52.30
21387;DHT22;10854;45.922;6.716;2023-05-16T13:44:15;21.80;52.30
21387;DHT22;10854;45.922;6.716;2023-05-16T13:46:44;21.80;52.30
21387;DHT22;10854;45.922;6.716;2023-05-16T13:49:13;21.90;51.80
21387;DHT22;10854;45.922;6.716;2023-05-16T13:51:41;22.00;52.20
21387;DHT22;10854;45.922;6.716;2023-05-16T13:54:09;22.20;52.20
21387;DHT22;10854;45.922;6.716;2023-05-16T13:56:38;22.60;51.00
21387;DHT22;10854;45.922;6.716;2023-05-16T13:59:06;22.70;50.40
21387;DHT22;10854;45.922;6.716;2023-05-16T14:01:36;22.70;50.60
21387;DHT22;10854;45.922;6.716;2023-05-16T14:04:04;22.80;49.90
21387;DHT22;10854;45.922;6.716;2023-05-16T14:06:35;23.00;50.50
21387;DHT22;10854;45.922;6.716;2023-05-16T14:09:04;23.30;50.10
21387;DHT22;10854;45.922;6.716;2023-05-16T14:11:33;23.50;49.00
21387;DHT22;10854;45.922;6.716;2023-05-16T14:14:02;23.30;48.80
21387;DHT22;10854;45.922;6.716;2023-05-16T14:16:30;23.20;49.20
21387;DHT22;10854;45.922;6.716;2023-05-16T14:19:00;23.40;49.50
21387;DHT22;10854;45.922;6.716;2023-05-16T14:21:28;23.70;49.10
21387;DHT22;10854;45.922;6.716;2023-05-16T14:23:57;23.70;47.90
21387;DHT22;10854;45.922;6.716;2023-05-16T14:26:25;23.60;47.30
21387;DHT22;10854;45.922;6.716;2023-05-16T14:28:54;23.20;48.20
21387;DHT22;10854;45.922;6.716;2023-05-16T14:31:23;22.90;48.10
21387;DHT22;10854;45.922;6.716;2023-05-16T14:33:52;22.60;48.60
21387;DHT22;10854;45.922;6.716;2023-05-16T14:36:20;22.50;47.60
21387;DHT22;10854;45.922;6.716;2023-05-16T14:38:49;22.40;47.50
21387;DHT22;10854;45.922;6.716;2023-05-16T14:41:17;22.30;47.40
21387;DHT22;10854;45.922;6.716;2023-05-16T14:43:45;22.10;47.30
21387;DHT22;10854;45.922;6.716;2023-05-16T14:46:14;21.90;46.70
21387;DHT22;10854;45.922;6.716;2023-05-16T14:48:42;21.70;46.90
21387;DHT22;10854;45.922;6.716;2023-05-16T14:51:11;21.70;47.60
21387;DHT22;10854;45.922;6.716;2023-05-16T14:53:39;21.80;47.50
21387;DHT22;10854;45.922;6.716;2023-05-16T14:56:07;21.70;49.50
21387;DHT22;10854;45.922;6.716;2023-05-16T14:58:36;21.30;51.00
21387;DHT22;10854;45.922;6.716;2023-05-16T15:01:04;20.90;51.90
21387;DHT22;10854;45.922;6.716;2023-05-16T15:03:32;20.60;53.20
21387;DHT22;10854;45.922;6.716;2023-05-16T15:06:04;20.40;52.80
21387;DHT22;10854;45.922;6.716;2023-05-16T15:08:34;20.40;53.30
21387;DHT22;10854;45.922;6.716;2023-05-16T15:11:04;20.20;53.80
21387;DHT22;10854;45.922;6.716;2023-05-16T15:13:32;19.80;54.90
21387;DHT22;10854;45.922;6.716;2023-05-16T15:16:01;19.40;55.40
21387;DHT22;10854;45.922;6.716;2023-05-16T15:18:29;19.00;55.70
21387;DHT22;10854;45.922;6.716;2023-05-16T15:20:57;18.80;56.60
21387;DHT22;10854;45.922;6.716;2023-05-16T15:23:26;18.50;56.90
21387;DHT22;10854;45.922;6.716;2023-05-16T15:25:54;18.20;57.30
21387;DHT22;10854;45.922;6.716;2023-05-16T15:28:22;18.20;57.70
21387;DHT22;10854;45.922;6.716;2023-05-16T15:30:51;18.20;57.60
21387;DHT22;10854;45.922;6.716;2023-05-16T15:33:19;18.30;58.20
21387;DHT22;10854;45.922;6.716;2023-05-16T15:35:47;18.30;58.00
21387;DHT22;10854;45.922;6.716;2023-05-16T15:38:16;18.40;57.90
21387;DHT22;10854;45.922;6.716;2023-05-16T15:40:44;18.40;57.90
21387;DHT22;10854;45.922;6.716;2023-05-16T15:43:13;18.30;58.30
21387;DHT22;10854;45.922;6.716;2023-05-16T15:45:43;18.10;58.30
21387;DHT22;10854;45.922;6.716;2023-05-16T15:48:12;18.00;58.50
21387;DHT22;10854;45.922;6.716;2023-05-16T15:50:40;17.80;58.60
21387;DHT22;10854;45.922;6.716;2023-05-16T15:53:10;17.70;58.50
21387;DHT22;10854;45.922;6.716;2023-05-16T15:55:38;17.70;58.50
21387;DHT22;10854;45.922;6.716;2023-05-16T15:58:06;17.70;58.20